Terminal Aerodrome Forecast
Issued by NWS Atlanta, GA

Home | Current Version | Previous Version | Text Only | Print | Product List | Glossary On
Versions: 1 2 3 4 5 6 7 8 9 10 11 12
000
FTUS42 KFFC 011733
TAFMCN
TAF
KMCN 011733Z 0118/0218 17009KT P6SM BKN040
     FM020100 18012KT 6SM -RA SCT015 OVC040
     FM020300 19015KT 6SM -RA SCT008 OVC012
     FM020500 19014G20KT 3SM RA OVC008
     FM021100 25011KT 6SM -SHRA SCT008 OVC012
     FM021300 27010KT P6SM OVC012
     FM021600 30012G25KT P6SM BKN060=

USA.gov is the U.S. government's official web portal to all federal, state and local government web resources and services.